sensor_id;sensor_type;location;lat;lon;timestamp;P1;durP1;ratioP1;P2;durP2;ratioP2
16593;SDS011;8410;52.532;13.336;2023-06-10T00:00:03;9.80;;;4.93;;
16593;SDS011;8410;52.532;13.336;2023-06-10T00:02:34;9.90;;;4.93;;
16593;SDS011;8410;52.532;13.336;2023-06-10T00:05:02;10.17;;;4.63;;
16593;SDS011;8410;52.532;13.336;2023-06-10T00:07:30;10.40;;;5.57;;
16593;SDS011;8410;52.532;13.336;2023-06-10T00:09:57;9.07;;;5.23;;
16593;SDS011;8410;52.532;13.336;2023-06-10T00:12:25;8.23;;;5.17;;
16593;SDS011;8410;52.532;13.336;2023-06-10T00:14:55;8.50;;;4.90;;
16593;SDS011;8410;52.532;13.336;2023-06-10T00:17:22;8.97;;;5.07;;
16593;SDS011;8410;52.532;13.336;2023-06-10T00:19:52;9.57;;;4.67;;
16593;SDS011;8410;52.532;13.336;2023-06-10T00:22:20;7.87;;;5.00;;
16593;SDS011;8410;52.532;13.336;2023-06-10T00:24:48;10.53;;;5.07;;
16593;SDS011;8410;52.532;13.336;2023-06-10T00:27:15;11.40;;;5.03;;
16593;SDS011;8410;52.532;13.336;2023-06-10T00:29:43;7.27;;;4.80;;
16593;SDS011;8410;52.532;13.336;2023-06-10T00:32:10;7.27;;;4.60;;
16593;SDS011;8410;52.532;13.336;2023-06-10T00:34:38;6.93;;;4.87;;
16593;SDS011;8410;52.532;13.336;2023-06-10T00:37:07;9.67;;;5.00;;
16593;SDS011;8410;52.532;13.336;2023-06-10T00:39:34;12.37;;;5.40;;
16593;SDS011;8410;52.532;13.336;2023-06-10T00:42:02;11.33;;;5.13;;
16593;SDS011;8410;52.532;13.336;2023-06-10T00:44:33;11.60;;;5.73;;
16593;SDS011;8410;52.532;13.336;2023-06-10T00:47:00;9.60;;;4.50;;
16593;SDS011;8410;52.532;13.336;2023-06-10T00:49:28;9.70;;;5.70;;
16593;SDS011;8410;52.532;13.336;2023-06-10T00:51:56;11.83;;;5.13;;
16593;SDS011;8410;52.532;13.336;2023-06-10T00:54:24;8.10;;;5.30;;
16593;SDS011;8410;52.532;13.336;2023-06-10T00:56:53;8.53;;;4.93;;
16593;SDS011;8410;52.532;13.336;2023-06-10T00:59:20;11.17;;;5.33;;
16593;SDS011;8410;52.532;13.336;2023-06-10T01:01:48;8.00;;;4.70;;
16593;SDS011;8410;52.532;13.336;2023-06-10T01:04:16;10.43;;;4.90;;
16593;SDS011;8410;52.532;13.336;2023-06-10T01:06:47;9.80;;;5.63;;
16593;SDS011;8410;52.532;13.336;2023-06-10T01:09:26;9.80;;;5.60;;
16593;SDS011;8410;52.532;13.336;2023-06-10T01:12:02;12.27;;;5.30;;
16593;SDS011;8410;52.532;13.336;2023-06-10T01:14:37;11.07;;;6.20;;
16593;SDS011;8410;52.532;13.336;2023-06-10T01:17:11;10.17;;;4.90;;
16593;SDS011;8410;52.532;13.336;2023-06-10T01:19:39;10.90;;;5.07;;
16593;SDS011;8410;52.532;13.336;2023-06-10T01:22:11;9.87;;;4.60;;
16593;SDS011;8410;52.532;13.336;2023-06-10T01:24:59;7.53;;;4.43;;
16593;SDS011;8410;52.532;13.336;2023-06-10T01:27:30;10.30;;;5.53;;
16593;SDS011;8410;52.532;13.336;2023-06-10T01:30:07;12.67;;;4.97;;
16593;SDS011;8410;52.532;13.336;2023-06-10T01:32:40;10.33;;;4.90;;
16593;SDS011;8410;52.532;13.336;2023-06-10T01:35:12;9.23;;;5.13;;
16593;SDS011;8410;52.532;13.336;2023-06-10T01:37:42;7.63;;;5.07;;
16593;SDS011;8410;52.532;13.336;2023-06-10T01:40:12;13.80;;;5.77;;
16593;SDS011;8410;52.532;13.336;2023-06-10T01:42:41;11.60;;;4.77;;
16593;SDS011;8410;52.532;13.336;2023-06-10T01:45:09;11.17;;;5.80;;
16593;SDS011;8410;52.532;13.336;2023-06-10T01:47:37;8.07;;;4.80;;
16593;SDS011;8410;52.532;13.336;2023-06-10T01:50:05;10.10;;;5.10;;
16593;SDS011;8410;52.532;13.336;2023-06-10T01:52:33;12.13;;;4.93;;
16593;SDS011;8410;52.532;13.336;2023-06-10T01:55:02;10.93;;;4.90;;
16593;SDS011;8410;52.532;13.336;2023-06-10T01:57:30;8.43;;;4.90;;
16593;SDS011;8410;52.532;13.336;2023-06-10T01:59:58;10.23;;;4.73;;
16593;SDS011;8410;52.532;13.336;2023-06-10T02:02:25;6.80;;;4.47;;
16593;SDS011;8410;52.532;13.336;2023-06-10T02:04:53;8.03;;;4.40;;
16593;SDS011;8410;52.532;13.336;2023-06-10T02:07:21;8.47;;;4.60;;
16593;SDS011;8410;52.532;13.336;2023-06-10T02:09:48;9.23;;;4.70;;
16593;SDS011;8410;52.532;13.336;2023-06-10T02:12:17;10.33;;;5.20;;
16593;SDS011;8410;52.532;13.336;2023-06-10T02:14:45;9.83;;;4.83;;
16593;SDS011;8410;52.532;13.336;2023-06-10T02:17:12;8.47;;;5.07;;
16593;SDS011;8410;52.532;13.336;2023-06-10T02:19:40;11.00;;;4.83;;
16593;SDS011;8410;52.532;13.336;2023-06-10T02:22:09;10.60;;;4.97;;
16593;SDS011;8410;52.532;13.336;2023-06-10T02:24:36;9.23;;;5.50;;
16593;SDS011;8410;52.532;13.336;2023-06-10T02:27:05;8.47;;;5.10;;
16593;SDS011;8410;52.532;13.336;2023-06-10T02:29:35;10.27;;;5.47;;
16593;SDS011;8410;52.532;13.336;2023-06-10T02:32:02;8.70;;;4.83;;
16593;SDS011;8410;52.532;13.336;2023-06-10T02:34:33;14.23;;;5.03;;
16593;SDS011;8410;52.532;13.336;2023-06-10T02:37:02;11.20;;;5.47;;
16593;SDS011;8410;52.532;13.336;2023-06-10T02:39:30;13.07;;;6.17;;
16593;SDS011;8410;52.532;13.336;2023-06-10T02:41:58;11.50;;;5.97;;
16593;SDS011;8410;52.532;13.336;2023-06-10T02:44:25;9.20;;;5.37;;
16593;SDS011;8410;52.532;13.336;2023-06-10T02:46:54;11.37;;;6.07;;
16593;SDS011;8410;52.532;13.336;2023-06-10T02:49:22;11.97;;;5.13;;
16593;SDS011;8410;52.532;13.336;2023-06-10T02:51:49;11.50;;;5.13;;
16593;SDS011;8410;52.532;13.336;2023-06-10T02:54:19;7.83;;;5.63;;
16593;SDS011;8410;52.532;13.336;2023-06-10T02:56:47;9.53;;;5.00;;
16593;SDS011;8410;52.532;13.336;2023-06-10T02:59:15;10.63;;;5.60;;
16593;SDS011;8410;52.532;13.336;2023-06-10T03:01:42;9.13;;;5.30;;
16593;SDS011;8410;52.532;13.336;2023-06-10T03:04:11;10.97;;;5.63;;
16593;SDS011;8410;52.532;13.336;2023-06-10T03:06:39;9.17;;;4.93;;
16593;SDS011;8410;52.532;13.336;2023-06-10T03:09:09;9.43;;;6.10;;
16593;SDS011;8410;52.532;13.336;2023-06-10T03:11:37;9.83;;;5.70;;
16593;SDS011;8410;52.532;13.336;2023-06-10T03:14:04;8.37;;;5.40;;
16593;SDS011;8410;52.532;13.336;2023-06-10T03:16:32;8.53;;;5.57;;
16593;SDS011;8410;52.532;13.336;2023-06-10T03:19:00;9.50;;;5.43;;
16593;SDS011;8410;52.532;13.336;2023-06-10T03:21:28;9.37;;;5.67;;
16593;SDS011;8410;52.532;13.336;2023-06-10T03:23:56;11.60;;;5.50;;
16593;SDS011;8410;52.532;13.336;2023-06-10T03:26:24;9.17;;;5.20;;
16593;SDS011;8410;52.532;13.336;2023-06-10T03:28:52;14.23;;;5.57;;
16593;SDS011;8410;52.532;13.336;2023-06-10T03:31:19;11.20;;;5.83;;
16593;SDS011;8410;52.532;13.336;2023-06-10T03:33:47;12.57;;;5.80;;
16593;SDS011;8410;52.532;13.336;2023-06-10T03:36:14;10.97;;;5.70;;
16593;SDS011;8410;52.532;13.336;2023-06-10T03:38:43;11.23;;;5.60;;
16593;SDS011;8410;52.532;13.336;2023-06-10T03:41:11;11.87;;;5.80;;
16593;SDS011;8410;52.532;13.336;2023-06-10T03:43:38;9.73;;;5.97;;
16593;SDS011;8410;52.532;13.336;2023-06-10T03:46:08;11.37;;;5.57;;
16593;SDS011;8410;52.532;13.336;2023-06-10T03:48:35;11.90;;;6.07;;
16593;SDS011;8410;52.532;13.336;2023-06-10T03:51:03;10.80;;;4.97;;
16593;SDS011;8410;52.532;13.336;2023-06-10T03:53:30;12.10;;;5.87;;
16593;SDS011;8410;52.532;13.336;2023-06-10T03:55:59;9.00;;;5.70;;
16593;SDS011;8410;52.532;13.336;2023-06-10T03:58:27;9.50;;;5.70;;
16593;SDS011;8410;52.532;13.336;2023-06-10T04:00:55;7.73;;;5.67;;
16593;SDS011;8410;52.532;13.336;2023-06-10T04:03:22;12.10;;;5.10;;
16593;SDS011;8410;52.532;13.336;2023-06-10T04:05:50;10.63;;;6.17;;
16593;SDS011;8410;52.532;13.336;2023-06-10T04:08:18;11.70;;;5.73;;
16593;SDS011;8410;52.532;13.336;2023-06-10T04:10:46;8.40;;;5.43;;
16593;SDS011;8410;52.532;13.336;2023-06-10T04:13:15;11.10;;;6.03;;
16593;SDS011;8410;52.532;13.336;2023-06-10T04:15:43;10.80;;;5.83;;
16593;SDS011;8410;52.532;13.336;2023-06-10T04:18:11;11.03;;;5.57;;
16593;SDS011;8410;52.532;13.336;2023-06-10T04:20:38;7.20;;;5.43;;
16593;SDS011;8410;52.532;13.336;2023-06-10T04:23:06;11.53;;;5.80;;
16593;SDS011;8410;52.532;13.336;2023-06-10T04:25:33;9.00;;;6.07;;
16593;SDS011;8410;52.532;13.336;2023-06-10T04:28:01;11.47;;;5.37;;
16593;SDS011;8410;52.532;13.336;2023-06-10T04:30:30;9.67;;;5.63;;
16593;SDS011;8410;52.532;13.336;2023-06-10T04:32:58;8.87;;;5.53;;
16593;SDS011;8410;52.532;13.336;2023-06-10T04:35:26;11.02;;;5.88;;
16593;SDS011;8410;52.532;13.336;2023-06-10T04:37:53;8.53;;;5.50;;
16593;SDS011;8410;52.532;13.336;2023-06-10T04:40:21;8.50;;;5.10;;
16593;SDS011;8410;52.532;13.336;2023-06-10T04:42:49;12.03;;;6.03;;
16593;SDS011;8410;52.532;13.336;2023-06-10T04:45:16;13.97;;;6.30;;
16593;SDS011;8410;52.532;13.336;2023-06-10T04:47:45;10.70;;;6.90;;
16593;SDS011;8410;52.532;13.336;2023-06-10T04:50:13;11.03;;;5.83;;
16593;SDS011;8410;52.532;13.336;2023-06-10T04:52:42;8.63;;;5.77;;
16593;SDS011;8410;52.532;13.336;2023-06-10T04:55:10;9.90;;;6.57;;
16593;SDS011;8410;52.532;13.336;2023-06-10T04:57:38;11.23;;;6.47;;
16593;SDS011;8410;52.532;13.336;2023-06-10T05:00:06;8.63;;;6.27;;
16593;SDS011;8410;52.532;13.336;2023-06-10T05:02:34;8.23;;;5.87;;
16593;SDS011;8410;52.532;13.336;2023-06-10T05:05:03;12.87;;;6.23;;
16593;SDS011;8410;52.532;13.336;2023-06-10T05:07:32;12.73;;;6.03;;
16593;SDS011;8410;52.532;13.336;2023-06-10T05:10:00;10.00;;;6.17;;
16593;SDS011;8410;52.532;13.336;2023-06-10T05:12:27;9.97;;;6.40;;
16593;SDS011;8410;52.532;13.336;2023-06-10T05:14:55;11.80;;;6.37;;
16593;SDS011;8410;52.532;13.336;2023-06-10T05:17:23;12.70;;;6.53;;
16593;SDS011;8410;52.532;13.336;2023-06-10T05:19:51;10.67;;;5.97;;
16593;SDS011;8410;52.532;13.336;2023-06-10T05:22:20;11.03;;;5.97;;
16593;SDS011;8410;52.532;13.336;2023-06-10T05:24:50;8.83;;;5.80;;
16593;SDS011;8410;52.532;13.336;2023-06-10T05:27:18;8.37;;;6.17;;
16593;SDS011;8410;52.532;13.336;2023-06-10T05:29:46;8.27;;;6.23;;
16593;SDS011;8410;52.532;13.336;2023-06-10T05:32:13;10.23;;;6.40;;
16593;SDS011;8410;52.532;13.336;2023-06-10T05:34:41;10.30;;;6.60;;
16593;SDS011;8410;52.532;13.336;2023-06-10T05:37:08;10.40;;;5.97;;
16593;SDS011;8410;52.532;13.336;2023-06-10T05:39:37;10.80;;;6.33;;
16593;SDS011;8410;52.532;13.336;2023-06-10T05:42:06;10.70;;;6.33;;
16593;SDS011;8410;52.532;13.336;2023-06-10T05:44:35;9.57;;;5.85;;
16593;SDS011;8410;52.532;13.336;2023-06-10T05:47:03;11.77;;;6.23;;
16593;SDS011;8410;52.532;13.336;2023-06-10T05:49:31;11.30;;;6.93;;
16593;SDS011;8410;52.532;13.336;2023-06-10T05:51:59;12.30;;;6.07;;
16593;SDS011;8410;52.532;13.336;2023-06-10T05:54:26;7.47;;;5.22;;
16593;SDS011;8410;52.532;13.336;2023-06-10T05:56:56;8.25;;;4.57;;
16593;SDS011;8410;52.532;13.336;2023-06-10T05:59:24;10.77;;;4.60;;
16593;SDS011;8410;52.532;13.336;2023-06-10T06:01:51;8.60;;;5.53;;
16593;SDS011;8410;52.532;13.336;2023-06-10T06:04:19;9.27;;;4.07;;
16593;SDS011;8410;52.532;13.336;2023-06-10T06:06:47;9.48;;;5.85;;
16593;SDS011;8410;52.532;13.336;2023-06-10T06:09:14;8.23;;;5.30;;
16593;SDS011;8410;52.532;13.336;2023-06-10T06:11:42;8.85;;;5.90;;
16593;SDS011;8410;52.532;13.336;2023-06-10T06:14:11;10.48;;;5.97;;
16593;SDS011;8410;52.532;13.336;2023-06-10T06:16:38;10.60;;;5.78;;
16593;SDS011;8410;52.532;13.336;2023-06-10T06:19:06;7.78;;;5.15;;
16593;SDS011;8410;52.532;13.336;2023-06-10T06:21:34;10.80;;;5.90;;
16593;SDS011;8410;52.532;13.336;2023-06-10T06:24:01;7.85;;;5.40;;
16593;SDS011;8410;52.532;13.336;2023-06-10T06:26:29;8.35;;;5.55;;
16593;SDS011;8410;52.532;13.336;2023-06-10T06:28:56;8.05;;;5.53;;
16593;SDS011;8410;52.532;13.336;2023-06-10T06:31:25;7.90;;;5.82;;
16593;SDS011;8410;52.532;13.336;2023-06-10T06:33:53;7.45;;;5.68;;
16593;SDS011;8410;52.532;13.336;2023-06-10T06:36:20;8.10;;;5.47;;
16593;SDS011;8410;52.532;13.336;2023-06-10T06:38:48;8.60;;;6.20;;
16593;SDS011;8410;52.532;13.336;2023-06-10T06:41:15;8.55;;;5.88;;
16593;SDS011;8410;52.532;13.336;2023-06-10T06:43:43;10.95;;;6.20;;
16593;SDS011;8410;52.532;13.336;2023-06-10T06:46:10;9.00;;;5.93;;
16593;SDS011;8410;52.532;13.336;2023-06-10T06:48:44;8.05;;;6.07;;
16593;SDS011;8410;52.532;13.336;2023-06-10T06:51:11;9.32;;;5.80;;
16593;SDS011;8410;52.532;13.336;2023-06-10T06:53:39;7.68;;;5.57;;
16593;SDS011;8410;52.532;13.336;2023-06-10T06:56:10;9.20;;;5.78;;
16593;SDS011;8410;52.532;13.336;2023-06-10T06:58:38;7.38;;;5.32;;
16593;SDS011;8410;52.532;13.336;2023-06-10T07:01:05;9.27;;;5.95;;
16593;SDS011;8410;52.532;13.336;2023-06-10T07:03:33;10.50;;;6.30;;
16593;SDS011;8410;52.532;13.336;2023-06-10T07:06:02;7.03;;;5.53;;
16593;SDS011;8410;52.532;13.336;2023-06-10T07:08:30;8.43;;;5.40;;
16593;SDS011;8410;52.532;13.336;2023-06-10T07:10:57;6.75;;;5.38;;
16593;SDS011;8410;52.532;13.336;2023-06-10T07:13:25;6.80;;;5.15;;
16593;SDS011;8410;52.532;13.336;2023-06-10T07:15:52;10.52;;;6.10;;
16593;SDS011;8410;52.532;13.336;2023-06-10T07:18:20;8.18;;;5.45;;
16593;SDS011;8410;52.532;13.336;2023-06-10T07:20:47;10.57;;;5.43;;
16593;SDS011;8410;52.532;13.336;2023-06-10T07:23:16;8.68;;;5.25;;
16593;SDS011;8410;52.532;13.336;2023-06-10T07:25:44;8.00;;;5.78;;
16593;SDS011;8410;52.532;13.336;2023-06-10T07:28:11;11.55;;;6.32;;
16593;SDS011;8410;52.532;13.336;2023-06-10T07:30:39;8.85;;;6.15;;
16593;SDS011;8410;52.532;13.336;2023-06-10T07:33:06;13.65;;;5.93;;
16593;SDS011;8410;52.532;13.336;2023-06-10T07:35:34;10.60;;;6.15;;
16593;SDS011;8410;52.532;13.336;2023-06-10T07:38:01;6.80;;;6.10;;
16593;SDS011;8410;52.532;13.336;2023-06-10T07:40:32;9.32;;;6.60;;
16593;SDS011;8410;52.532;13.336;2023-06-10T07:43:00;7.80;;;5.28;;
16593;SDS011;8410;52.532;13.336;2023-06-10T07:45:28;10.48;;;5.65;;
16593;SDS011;8410;52.532;13.336;2023-06-10T07:47:56;8.93;;;6.05;;
16593;SDS011;8410;52.532;13.336;2023-06-10T07:50:23;8.43;;;5.85;;
16593;SDS011;8410;52.532;13.336;2023-06-10T07:52:51;9.48;;;5.70;;
16593;SDS011;8410;52.532;13.336;2023-06-10T07:55:18;7.38;;;5.60;;
16593;SDS011;8410;52.532;13.336;2023-06-10T07:57:47;8.80;;;5.68;;
16593;SDS011;8410;52.532;13.336;2023-06-10T08:00:15;9.60;;;6.60;;
16593;SDS011;8410;52.532;13.336;2023-06-10T08:02:43;12.20;;;6.70;;
16593;SDS011;8410;52.532;13.336;2023-06-10T08:05:11;10.73;;;6.40;;
16593;SDS011;8410;52.532;13.336;2023-06-10T08:07:39;11.82;;;6.07;;
16593;SDS011;8410;52.532;13.336;2023-06-10T08:10:08;8.85;;;6.40;;
16593;SDS011;8410;52.532;13.336;2023-06-10T08:12:36;11.98;;;6.65;;
16593;SDS011;8410;52.532;13.336;2023-06-10T08:15:05;7.75;;;5.82;;
16593;SDS011;8410;52.532;13.336;2023-06-10T08:17:34;8.98;;;6.05;;
16593;SDS011;8410;52.532;13.336;2023-06-10T08:20:01;7.55;;;6.05;;
16593;SDS011;8410;52.532;13.336;2023-06-10T08:22:29;7.70;;;6.00;;
16593;SDS011;8410;52.532;13.336;2023-06-10T08:24:57;10.20;;;7.05;;
16593;SDS011;8410;52.532;13.336;2023-06-10T08:27:24;7.20;;;5.10;;
16593;SDS011;8410;52.532;13.336;2023-06-10T08:29:52;9.45;;;6.90;;
16593;SDS011;8410;52.532;13.336;2023-06-10T08:32:21;6.95;;;6.30;;
16593;SDS011;8410;52.532;13.336;2023-06-10T08:34:49;8.63;;;6.05;;
16593;SDS011;8410;52.532;13.336;2023-06-10T08:37:16;10.00;;;6.30;;
16593;SDS011;8410;52.532;13.336;2023-06-10T08:39:44;11.20;;;6.85;;
16593;SDS011;8410;52.532;13.336;2023-06-10T08:42:14;10.32;;;6.22;;
16593;SDS011;8410;52.532;13.336;2023-06-10T08:44:50;16.52;;;6.20;;
16593;SDS011;8410;52.532;13.336;2023-06-10T08:47:23;8.60;;;5.82;;
16593;SDS011;8410;52.532;13.336;2023-06-10T08:49:51;7.88;;;6.40;;
16593;SDS011;8410;52.532;13.336;2023-06-10T08:52:22;12.00;;;6.70;;
16593;SDS011;8410;52.532;13.336;2023-06-10T08:54:54;7.28;;;6.43;;
16593;SDS011;8410;52.532;13.336;2023-06-10T08:57:26;7.28;;;5.80;;
16593;SDS011;8410;52.532;13.336;2023-06-10T08:59:55;8.10;;;5.85;;
16593;SDS011;8410;52.532;13.336;2023-06-10T09:02:25;10.48;;;6.05;;
16593;SDS011;8410;52.532;13.336;2023-06-10T09:04:54;10.02;;;6.18;;
16593;SDS011;8410;52.532;13.336;2023-06-10T09:07:23;9.60;;;6.65;;
16593;SDS011;8410;52.532;13.336;2023-06-10T09:09:52;9.88;;;5.97;;
16593;SDS011;8410;52.532;13.336;2023-06-10T09:12:20;7.45;;;6.40;;
16593;SDS011;8410;52.532;13.336;2023-06-10T09:14:48;11.45;;;6.78;;
16593;SDS011;8410;52.532;13.336;2023-06-10T09:17:16;9.35;;;6.18;;
16593;SDS011;8410;52.532;13.336;2023-06-10T09:19:45;9.00;;;6.63;;
16593;SDS011;8410;52.532;13.336;2023-06-10T09:22:13;10.32;;;6.10;;
16593;SDS011;8410;52.532;13.336;2023-06-10T09:24:41;10.00;;;5.85;;
16593;SDS011;8410;52.532;13.336;2023-06-10T09:27:09;10.07;;;6.28;;
16593;SDS011;8410;52.532;13.336;2023-06-10T09:29:46;10.05;;;6.05;;
16593;SDS011;8410;52.532;13.336;2023-06-10T09:32:14;15.27;;;6.30;;
16593;SDS011;8410;52.532;13.336;2023-06-10T09:34:45;10.55;;;6.93;;
16593;SDS011;8410;52.532;13.336;2023-06-10T09:37:19;9.35;;;6.57;;
16593;SDS011;8410;52.532;13.336;2023-06-10T09:40:00;10.13;;;6.97;;
16593;SDS011;8410;52.532;13.336;2023-06-10T09:42:31;8.02;;;6.63;;
16593;SDS011;8410;52.532;13.336;2023-06-10T09:45:00;9.50;;;6.85;;
16593;SDS011;8410;52.532;13.336;2023-06-10T09:47:28;11.38;;;6.30;;
16593;SDS011;8410;52.532;13.336;2023-06-10T09:49:57;11.52;;;7.60;;
16593;SDS011;8410;52.532;13.336;2023-06-10T09:52:24;12.23;;;7.53;;
16593;SDS011;8410;52.532;13.336;2023-06-10T09:54:54;9.02;;;7.10;;
16593;SDS011;8410;52.532;13.336;2023-06-10T09:57:29;9.63;;;6.68;;
16593;SDS011;8410;52.532;13.336;2023-06-10T10:00:03;9.50;;;6.53;;
16593;SDS011;8410;52.532;13.336;2023-06-10T10:02:31;13.23;;;6.97;;
16593;SDS011;8410;52.532;13.336;2023-06-10T10:05:03;14.60;;;7.57;;
16593;SDS011;8410;52.532;13.336;2023-06-10T10:07:31;8.73;;;6.65;;
16593;SDS011;8410;52.532;13.336;2023-06-10T10:09:58;9.68;;;6.47;;
16593;SDS011;8410;52.532;13.336;2023-06-10T10:12:26;9.23;;;6.82;;
16593;SDS011;8410;52.532;13.336;2023-06-10T10:14:54;8.80;;;6.80;;
16593;SDS011;8410;52.532;13.336;2023-06-10T10:17:23;13.02;;;6.85;;
16593;SDS011;8410;52.532;13.336;2023-06-10T10:19:53;9.48;;;6.50;;
16593;SDS011;8410;52.532;13.336;2023-06-10T10:22:29;9.77;;;6.60;;
16593;SDS011;8410;52.532;13.336;2023-06-10T10:25:02;7.68;;;6.05;;
16593;SDS011;8410;52.532;13.336;2023-06-10T10:27:40;10.63;;;6.40;;
16593;SDS011;8410;52.532;13.336;2023-06-10T10:30:11;10.20;;;5.90;;
16593;SDS011;8410;52.532;13.336;2023-06-10T10:32:43;8.18;;;5.85;;
16593;SDS011;8410;52.532;13.336;2023-06-10T10:35:20;9.65;;;5.13;;
16593;SDS011;8410;52.532;13.336;2023-06-10T10:37:51;7.28;;;5.80;;
16593;SDS011;8410;52.532;13.336;2023-06-10T10:40:20;11.38;;;5.82;;
16593;SDS011;8410;52.532;13.336;2023-06-10T10:42:49;7.75;;;5.70;;
16593;SDS011;8410;52.532;13.336;2023-06-10T10:45:17;6.00;;;4.75;;
16593;SDS011;8410;52.532;13.336;2023-06-10T10:47:46;7.70;;;5.03;;
16593;SDS011;8410;52.532;13.336;2023-06-10T10:50:14;7.70;;;4.95;;
16593;SDS011;8410;52.532;13.336;2023-06-10T10:52:50;9.73;;;4.75;;
16593;SDS011;8410;52.532;13.336;2023-06-10T10:55:22;6.00;;;4.55;;
16593;SDS011;8410;52.532;13.336;2023-06-10T10:57:54;5.05;;;4.60;;
16593;SDS011;8410;52.532;13.336;2023-06-10T11:00:29;4.60;;;4.20;;
16593;SDS011;8410;52.532;13.336;2023-06-10T11:02:58;4.72;;;4.20;;
16593;SDS011;8410;52.532;13.336;2023-06-10T11:05:31;5.90;;;4.03;;
16593;SDS011;8410;52.532;13.336;2023-06-10T11:08:05;4.57;;;3.97;;
16593;SDS011;8410;52.532;13.336;2023-06-10T11:10:34;7.15;;;4.15;;
16593;SDS011;8410;52.532;13.336;2023-06-10T11:13:06;6.03;;;3.97;;
16593;SDS011;8410;52.532;13.336;2023-06-10T11:15:38;4.35;;;3.95;;
16593;SDS011;8410;52.532;13.336;2023-06-10T11:18:08;4.20;;;3.88;;
16593;SDS011;8410;52.532;13.336;2023-06-10T11:20:53;4.68;;;4.28;;
16593;SDS011;8410;52.532;13.336;2023-06-10T11:23:27;6.75;;;4.30;;
16593;SDS011;8410;52.532;13.336;2023-06-10T11:26:14;4.85;;;4.35;;
16593;SDS011;8410;52.532;13.336;2023-06-10T11:31:38;5.50;;;4.43;;
16593;SDS011;8410;52.532;13.336;2023-06-10T11:34:10;5.13;;;4.63;;
16593;SDS011;8410;52.532;13.336;2023-06-10T11:36:40;7.55;;;4.47;;
16593;SDS011;8410;52.532;13.336;2023-06-10T11:39:10;6.15;;;4.70;;
16593;SDS011;8410;52.532;13.336;2023-06-10T11:41:39;3.97;;;3.67;;
16593;SDS011;8410;52.532;13.336;2023-06-10T11:44:07;4.78;;;4.38;;
16593;SDS011;8410;52.532;13.336;2023-06-10T11:46:36;5.43;;;4.90;;
16593;SDS011;8410;52.532;13.336;2023-06-10T11:49:05;5.43;;;4.93;;
16593;SDS011;8410;52.532;13.336;2023-06-10T11:51:33;5.72;;;5.10;;
16593;SDS011;8410;52.532;13.336;2023-06-10T11:54:02;7.05;;;5.03;;
16593;SDS011;8410;52.532;13.336;2023-06-10T11:56:31;6.57;;;4.95;;
16593;SDS011;8410;52.532;13.336;2023-06-10T11:58:59;6.10;;;5.47;;
16593;SDS011;8410;52.532;13.336;2023-06-10T12:01:30;6.18;;;4.80;;
16593;SDS011;8410;52.532;13.336;2023-06-10T12:04:02;5.40;;;5.00;;
16593;SDS011;8410;52.532;13.336;2023-06-10T12:06:37;5.60;;;5.10;;
16593;SDS011;8410;52.532;13.336;2023-06-10T12:09:05;6.95;;;6.28;;
16593;SDS011;8410;52.532;13.336;2023-06-10T12:11:52;7.30;;;6.00;;
16593;SDS011;8410;52.532;13.336;2023-06-10T12:17:34;7.35;;;6.05;;
16593;SDS011;8410;52.532;13.336;2023-06-10T12:20:05;8.18;;;6.15;;
16593;SDS011;8410;52.532;13.336;2023-06-10T12:22:37;6.28;;;5.55;;
16593;SDS011;8410;52.532;13.336;2023-06-10T12:25:06;6.38;;;5.78;;
16593;SDS011;8410;52.532;13.336;2023-06-10T12:27:37;6.20;;;5.55;;
16593;SDS011;8410;52.532;13.336;2023-06-10T12:30:07;6.35;;;5.25;;
16593;SDS011;8410;52.532;13.336;2023-06-10T12:32:36;9.32;;;5.47;;
16593;SDS011;8410;52.532;13.336;2023-06-10T12:35:06;6.20;;;4.95;;
16593;SDS011;8410;52.532;13.336;2023-06-10T12:37:35;5.35;;;4.82;;
16593;SDS011;8410;52.532;13.336;2023-06-10T12:40:08;6.18;;;4.78;;
16593;SDS011;8410;52.532;13.336;2023-06-10T12:42:38;5.45;;;4.97;;
16593;SDS011;8410;52.532;13.336;2023-06-10T12:45:06;4.95;;;4.45;;
16593;SDS011;8410;52.532;13.336;2023-06-10T12:47:37;6.20;;;5.10;;
16593;SDS011;8410;52.532;13.336;2023-06-10T12:50:06;5.75;;;5.25;;
16593;SDS011;8410;52.532;13.336;2023-06-10T12:52:34;6.75;;;6.15;;
16593;SDS011;8410;52.532;13.336;2023-06-10T12:55:02;8.23;;;6.13;;
16593;SDS011;8410;52.532;13.336;2023-06-10T12:57:30;6.70;;;5.95;;
16593;SDS011;8410;52.532;13.336;2023-06-10T12:59:59;6.72;;;5.95;;
16593;SDS011;8410;52.532;13.336;2023-06-10T13:02:31;6.95;;;6.35;;
16593;SDS011;8410;52.532;13.336;2023-06-10T13:04:58;7.22;;;6.60;;
16593;SDS011;8410;52.532;13.336;2023-06-10T13:07:26;8.20;;;7.22;;
16593;SDS011;8410;52.532;13.336;2023-06-10T13:09:53;7.40;;;6.70;;
16593;SDS011;8410;52.532;13.336;2023-06-10T13:12:21;8.10;;;7.05;;
16593;SDS011;8410;52.532;13.336;2023-06-10T13:15:05;7.85;;;7.05;;
16593;SDS011;8410;52.532;13.336;2023-06-10T13:17:34;8.27;;;7.57;;
16593;SDS011;8410;52.532;13.336;2023-06-10T13:20:02;7.70;;;6.97;;
16593;SDS011;8410;52.532;13.336;2023-06-10T13:22:31;7.63;;;6.70;;
16593;SDS011;8410;52.532;13.336;2023-06-10T13:24:59;14.52;;;7.88;;
16593;SDS011;8410;52.532;13.336;2023-06-10T13:27:26;7.80;;;7.10;;
16593;SDS011;8410;52.532;13.336;2023-06-10T13:29:54;9.70;;;7.70;;
16593;SDS011;8410;52.532;13.336;2023-06-10T13:32:23;9.25;;;7.30;;
16593;SDS011;8410;52.532;13.336;2023-06-10T13:34:51;7.65;;;6.95;;
16593;SDS011;8410;52.532;13.336;2023-06-10T13:37:19;7.53;;;6.82;;
16593;SDS011;8410;52.532;13.336;2023-06-10T13:39:46;9.13;;;6.53;;
16593;SDS011;8410;52.532;13.336;2023-06-10T13:42:16;7.35;;;6.65;;
16593;SDS011;8410;52.532;13.336;2023-06-10T13:44:44;8.00;;;7.20;;
16593;SDS011;8410;52.532;13.336;2023-06-10T13:47:13;7.55;;;6.78;;
16593;SDS011;8410;52.532;13.336;2023-06-10T13:49:43;7.28;;;6.63;;
16593;SDS011;8410;52.532;13.336;2023-06-10T13:52:10;7.53;;;6.60;;
16593;SDS011;8410;52.532;13.336;2023-06-10T13:54:38;6.30;;;5.75;;
16593;SDS011;8410;52.532;13.336;2023-06-10T13:57:05;6.93;;;6.22;;
16593;SDS011;8410;52.532;13.336;2023-06-10T13:59:36;9.85;;;6.30;;
16593;SDS011;8410;52.532;13.336;2023-06-10T14:02:04;6.53;;;5.93;;
16593;SDS011;8410;52.532;13.336;2023-06-10T14:04:32;7.25;;;5.95;;
16593;SDS011;8410;52.532;13.336;2023-06-10T14:07:01;11.38;;;7.18;;
16593;SDS011;8410;52.532;13.336;2023-06-10T14:09:28;7.47;;;6.55;;
16593;SDS011;8410;52.532;13.336;2023-06-10T14:11:56;8.40;;;6.50;;
16593;SDS011;8410;52.532;13.336;2023-06-10T14:14:23;7.80;;;6.65;;
16593;SDS011;8410;52.532;13.336;2023-06-10T14:16:51;8.20;;;7.03;;
16593;SDS011;8410;52.532;13.336;2023-06-10T14:19:18;9.15;;;6.57;;
16593;SDS011;8410;52.532;13.336;2023-06-10T14:21:46;6.82;;;6.13;;
16593;SDS011;8410;52.532;13.336;2023-06-10T14:24:17;7.40;;;6.47;;
16593;SDS011;8410;52.532;13.336;2023-06-10T14:26:44;9.80;;;6.63;;
16593;SDS011;8410;52.532;13.336;2023-06-10T14:29:12;4.93;;;4.53;;
16593;SDS011;8410;52.532;13.336;2023-06-10T14:31:40;7.82;;;7.13;;
16593;SDS011;8410;52.532;13.336;2023-06-10T14:34:08;7.65;;;5.82;;
16593;SDS011;8410;52.532;13.336;2023-06-10T14:36:36;6.75;;;5.25;;
16593;SDS011;8410;52.532;13.336;2023-06-10T14:39:04;5.07;;;4.60;;
16593;SDS011;8410;52.532;13.336;2023-06-10T14:41:33;7.13;;;5.15;;
16593;SDS011;8410;52.532;13.336;2023-06-10T14:44:01;5.35;;;4.90;;
16593;SDS011;8410;52.532;13.336;2023-06-10T14:46:28;7.97;;;5.18;;
16593;SDS011;8410;52.532;13.336;2023-06-10T14:48:56;5.63;;;5.13;;
16593;SDS011;8410;52.532;13.336;2023-06-10T14:51:25;5.85;;;5.40;;
16593;SDS011;8410;52.532;13.336;2023-06-10T14:53:53;5.18;;;4.78;;
16593;SDS011;8410;52.532;13.336;2023-06-10T14:56:20;5.35;;;4.88;;
16593;SDS011;8410;52.532;13.336;2023-06-10T14:58:49;7.03;;;5.30;;